sensor_id;sensor_type;location;lat;lon;timestamp;P1;durP1;ratioP1;P2;durP2;ratioP2
5412;SDS011;2729;50.056;8.678;2023-02-28T00:01:12;1.70;;;1.60;;
5412;SDS011;2729;50.056;8.678;2023-02-28T00:03:39;1.80;;;1.67;;
5412;SDS011;2729;50.056;8.678;2023-02-28T00:06:06;1.40;;;1.40;;
5412;SDS011;2729;50.056;8.678;2023-02-28T00:08:33;1.50;;;1.40;;
5412;SDS011;2729;50.056;8.678;2023-02-28T00:11:02;2.20;;;1.40;;
5412;SDS011;2729;50.056;8.678;2023-02-28T00:13:29;1.33;;;1.33;;
5412;SDS011;2729;50.056;8.678;2023-02-28T00:15:59;1.87;;;1.77;;
5412;SDS011;2729;50.056;8.678;2023-02-28T00:18:28;1.47;;;1.47;;
5412;SDS011;2729;50.056;8.678;2023-02-28T00:20:54;1.93;;;1.83;;
5412;SDS011;2729;50.056;8.678;2023-02-28T00:23:20;3.20;;;2.07;;
5412;SDS011;2729;50.056;8.678;2023-02-28T00:25:46;2.20;;;2.00;;
5412;SDS011;2729;50.056;8.678;2023-02-28T00:28:12;1.73;;;1.67;;
5412;SDS011;2729;50.056;8.678;2023-02-28T00:30:40;1.80;;;1.70;;
5412;SDS011;2729;50.056;8.678;2023-02-28T00:33:06;1.53;;;1.53;;
5412;SDS011;2729;50.056;8.678;2023-02-28T00:35:32;1.77;;;1.70;;
5412;SDS011;2729;50.056;8.678;2023-02-28T00:37:58;2.10;;;1.87;;
5412;SDS011;2729;50.056;8.678;2023-02-28T00:40:24;1.30;;;1.30;;
5412;SDS011;2729;50.056;8.678;2023-02-28T00:42:50;2.00;;;1.80;;
5412;SDS011;2729;50.056;8.678;2023-02-28T00:45:16;2.40;;;1.80;;
5412;SDS011;2729;50.056;8.678;2023-02-28T00:47:42;1.57;;;1.47;;
5412;SDS011;2729;50.056;8.678;2023-02-28T00:50:09;2.00;;;1.90;;
5412;SDS011;2729;50.056;8.678;2023-02-28T00:52:36;1.47;;;1.40;;
5412;SDS011;2729;50.056;8.678;2023-02-28T00:55:02;2.80;;;1.80;;
5412;SDS011;2729;50.056;8.678;2023-02-28T00:57:29;1.40;;;1.40;;
5412;SDS011;2729;50.056;8.678;2023-02-28T00:59:55;4.00;;;2.10;;
5412;SDS011;2729;50.056;8.678;2023-02-28T01:02:21;1.70;;;1.60;;
5412;SDS011;2729;50.056;8.678;2023-02-28T01:04:48;1.93;;;1.83;;
5412;SDS011;2729;50.056;8.678;2023-02-28T01:07:14;2.57;;;2.37;;
5412;SDS011;2729;50.056;8.678;2023-02-28T01:09:40;2.03;;;1.93;;
5412;SDS011;2729;50.056;8.678;2023-02-28T01:12:07;1.70;;;1.60;;
5412;SDS011;2729;50.056;8.678;2023-02-28T01:14:34;2.33;;;1.80;;
5412;SDS011;2729;50.056;8.678;2023-02-28T01:17:00;2.20;;;2.10;;
5412;SDS011;2729;50.056;8.678;2023-02-28T01:19:27;2.10;;;2.00;;
5412;SDS011;2729;50.056;8.678;2023-02-28T01:21:53;2.20;;;2.10;;
5412;SDS011;2729;50.056;8.678;2023-02-28T01:24:19;1.83;;;1.73;;
5412;SDS011;2729;50.056;8.678;2023-02-28T01:26:45;2.27;;;2.17;;
5412;SDS011;2729;50.056;8.678;2023-02-28T01:29:11;2.23;;;2.13;;
5412;SDS011;2729;50.056;8.678;2023-02-28T01:31:37;2.33;;;1.63;;
5412;SDS011;2729;50.056;8.678;2023-02-28T01:34:03;2.03;;;1.90;;
5412;SDS011;2729;50.056;8.678;2023-02-28T01:36:29;2.10;;;2.00;;
5412;SDS011;2729;50.056;8.678;2023-02-28T01:38:56;1.90;;;1.80;;
5412;SDS011;2729;50.056;8.678;2023-02-28T01:41:24;2.33;;;2.00;;
5412;SDS011;2729;50.056;8.678;2023-02-28T01:43:59;1.90;;;1.80;;
5412;SDS011;2729;50.056;8.678;2023-02-28T01:46:52;2.67;;;2.47;;
5412;SDS011;2729;50.056;8.678;2023-02-28T01:49:18;2.67;;;2.47;;
5412;SDS011;2729;50.056;8.678;2023-02-28T01:51:46;2.10;;;1.87;;
5412;SDS011;2729;50.056;8.678;2023-02-28T01:54:29;2.03;;;1.93;;
5412;SDS011;2729;50.056;8.678;2023-02-28T01:57:09;2.07;;;1.97;;
5412;SDS011;2729;50.056;8.678;2023-02-28T01:59:42;1.77;;;1.67;;
5412;SDS011;2729;50.056;8.678;2023-02-28T02:02:17;2.43;;;2.27;;
5412;SDS011;2729;50.056;8.678;2023-02-28T02:04:50;3.97;;;2.03;;
5412;SDS011;2729;50.056;8.678;2023-02-28T02:07:33;1.70;;;1.67;;
5412;SDS011;2729;50.056;8.678;2023-02-28T02:10:03;2.30;;;2.10;;
5412;SDS011;2729;50.056;8.678;2023-02-28T02:13:01;2.50;;;2.20;;
5412;SDS011;2729;50.056;8.678;2023-02-28T02:18:34;2.30;;;2.20;;
5412;SDS011;2729;50.056;8.678;2023-02-28T02:27:42;2.23;;;2.13;;
5412;SDS011;2729;50.056;8.678;2023-02-28T02:33:03;2.10;;;1.97;;
5412;SDS011;2729;50.056;8.678;2023-02-28T02:35:36;2.33;;;2.23;;
5412;SDS011;2729;50.056;8.678;2023-02-28T02:38:08;2.90;;;2.70;;
5412;SDS011;2729;50.056;8.678;2023-02-28T02:43:22;2.20;;;2.10;;
5412;SDS011;2729;50.056;8.678;2023-02-28T02:46:02;2.53;;;2.27;;
5412;SDS011;2729;50.056;8.678;2023-02-28T02:48:36;1.90;;;1.80;;
5412;SDS011;2729;50.056;8.678;2023-02-28T02:51:07;2.17;;;2.07;;
5412;SDS011;2729;50.056;8.678;2023-02-28T02:53:42;1.80;;;1.70;;
5412;SDS011;2729;50.056;8.678;2023-02-28T02:56:15;2.80;;;2.60;;
5412;SDS011;2729;50.056;8.678;2023-02-28T02:58:45;2.93;;;2.73;;
5412;SDS011;2729;50.056;8.678;2023-02-28T03:01:16;2.70;;;2.50;;
5412;SDS011;2729;50.056;8.678;2023-02-28T03:03:54;2.70;;;2.50;;
5412;SDS011;2729;50.056;8.678;2023-02-28T03:06:26;2.10;;;2.00;;
5412;SDS011;2729;50.056;8.678;2023-02-28T03:08:52;2.00;;;1.90;;
5412;SDS011;2729;50.056;8.678;2023-02-28T03:11:18;2.27;;;2.07;;
5412;SDS011;2729;50.056;8.678;2023-02-28T03:13:50;1.93;;;1.80;;
5412;SDS011;2729;50.056;8.678;2023-02-28T03:16:35;2.10;;;2.00;;
5412;SDS011;2729;50.056;8.678;2023-02-28T03:19:18;1.80;;;1.70;;
5412;SDS011;2729;50.056;8.678;2023-02-28T03:21:58;2.10;;;2.00;;
5412;SDS011;2729;50.056;8.678;2023-02-28T03:27:32;2.30;;;2.10;;
5412;SDS011;2729;50.056;8.678;2023-02-28T03:33:02;2.10;;;2.00;;
5412;SDS011;2729;50.056;8.678;2023-02-28T03:35:41;2.03;;;1.93;;
5412;SDS011;2729;50.056;8.678;2023-02-28T03:38:18;2.10;;;2.00;;
5412;SDS011;2729;50.056;8.678;2023-02-28T03:41:01;1.93;;;1.83;;
5412;SDS011;2729;50.056;8.678;2023-02-28T03:43:35;2.10;;;2.00;;
5412;SDS011;2729;50.056;8.678;2023-02-28T03:46:07;2.20;;;2.00;;
5412;SDS011;2729;50.056;8.678;2023-02-28T03:48:43;1.90;;;1.90;;
5412;SDS011;2729;50.056;8.678;2023-02-28T03:51:15;2.07;;;1.97;;
5412;SDS011;2729;50.056;8.678;2023-02-28T03:53:47;2.07;;;2.00;;
5412;SDS011;2729;50.056;8.678;2023-02-28T03:56:39;1.90;;;1.80;;
5412;SDS011;2729;50.056;8.678;2023-02-28T03:59:13;1.60;;;1.53;;
5412;SDS011;2729;50.056;8.678;2023-02-28T04:01:45;2.10;;;2.00;;
5412;SDS011;2729;50.056;8.678;2023-02-28T04:04:13;3.20;;;3.00;;
5412;SDS011;2729;50.056;8.678;2023-02-28T04:06:40;1.90;;;1.80;;
5412;SDS011;2729;50.056;8.678;2023-02-28T04:09:08;2.17;;;1.97;;
5412;SDS011;2729;50.056;8.678;2023-02-28T04:11:37;2.20;;;2.10;;
5412;SDS011;2729;50.056;8.678;2023-02-28T04:14:06;2.60;;;2.30;;
5412;SDS011;2729;50.056;8.678;2023-02-28T04:16:33;1.70;;;1.60;;
5412;SDS011;2729;50.056;8.678;2023-02-28T04:19:01;2.40;;;2.30;;
5412;SDS011;2729;50.056;8.678;2023-02-28T04:21:32;2.23;;;2.13;;
5412;SDS011;2729;50.056;8.678;2023-02-28T04:23:59;12.40;;;2.20;;
5412;SDS011;2729;50.056;8.678;2023-02-28T04:26:32;2.40;;;2.20;;
5412;SDS011;2729;50.056;8.678;2023-02-28T04:29:01;2.10;;;2.00;;
5412;SDS011;2729;50.056;8.678;2023-02-28T04:31:28;5.77;;;2.20;;
5412;SDS011;2729;50.056;8.678;2023-02-28T04:33:54;2.50;;;2.30;;
5412;SDS011;2729;50.056;8.678;2023-02-28T04:36:20;2.57;;;2.37;;
5412;SDS011;2729;50.056;8.678;2023-02-28T04:38:48;2.03;;;1.90;;
5412;SDS011;2729;50.056;8.678;2023-02-28T04:41:15;3.03;;;2.53;;
5412;SDS011;2729;50.056;8.678;2023-02-28T04:43:42;2.23;;;2.13;;
5412;SDS011;2729;50.056;8.678;2023-02-28T04:46:08;4.10;;;2.53;;
5412;SDS011;2729;50.056;8.678;2023-02-28T04:48:36;2.23;;;2.10;;
5412;SDS011;2729;50.056;8.678;2023-02-28T04:51:05;1.97;;;1.90;;
5412;SDS011;2729;50.056;8.678;2023-02-28T04:53:34;2.10;;;2.00;;
5412;SDS011;2729;50.056;8.678;2023-02-28T04:56:01;1.83;;;1.73;;
5412;SDS011;2729;50.056;8.678;2023-02-28T04:58:27;2.67;;;2.47;;
5412;SDS011;2729;50.056;8.678;2023-02-28T05:00:53;2.20;;;1.93;;
5412;SDS011;2729;50.056;8.678;2023-02-28T05:03:20;2.13;;;2.03;;
5412;SDS011;2729;50.056;8.678;2023-02-28T05:05:48;1.87;;;1.77;;
5412;SDS011;2729;50.056;8.678;2023-02-28T05:08:14;2.03;;;1.93;;
5412;SDS011;2729;50.056;8.678;2023-02-28T05:10:41;2.90;;;2.20;;
5412;SDS011;2729;50.056;8.678;2023-02-28T05:13:09;3.37;;;1.93;;
5412;SDS011;2729;50.056;8.678;2023-02-28T05:15:37;2.07;;;1.97;;
5412;SDS011;2729;50.056;8.678;2023-02-28T05:18:08;2.30;;;2.10;;
5412;SDS011;2729;50.056;8.678;2023-02-28T05:20:35;2.37;;;2.20;;
5412;SDS011;2729;50.056;8.678;2023-02-28T05:23:01;2.70;;;1.70;;
5412;SDS011;2729;50.056;8.678;2023-02-28T05:25:28;1.60;;;1.50;;
5412;SDS011;2729;50.056;8.678;2023-02-28T05:27:54;2.17;;;2.07;;
5412;SDS011;2729;50.056;8.678;2023-02-28T05:30:20;1.73;;;1.70;;
5412;SDS011;2729;50.056;8.678;2023-02-28T05:32:49;2.30;;;2.20;;
5412;SDS011;2729;50.056;8.678;2023-02-28T05:35:16;2.43;;;2.33;;
5412;SDS011;2729;50.056;8.678;2023-02-28T05:37:44;2.10;;;2.00;;
5412;SDS011;2729;50.056;8.678;2023-02-28T05:40:11;1.60;;;1.50;;
5412;SDS011;2729;50.056;8.678;2023-02-28T05:42:38;1.73;;;1.70;;
5412;SDS011;2729;50.056;8.678;2023-02-28T05:45:06;8.60;;;2.27;;
5412;SDS011;2729;50.056;8.678;2023-02-28T05:47:33;1.60;;;1.60;;
5412;SDS011;2729;50.056;8.678;2023-02-28T05:50:00;2.70;;;2.50;;
5412;SDS011;2729;50.056;8.678;2023-02-28T05:52:27;1.83;;;1.73;;
5412;SDS011;2729;50.056;8.678;2023-02-28T05:54:53;1.57;;;1.57;;
5412;SDS011;2729;50.056;8.678;2023-02-28T05:57:19;1.67;;;1.57;;
5412;SDS011;2729;50.056;8.678;2023-02-28T05:59:45;1.50;;;1.40;;
5412;SDS011;2729;50.056;8.678;2023-02-28T06:02:12;1.60;;;1.60;;
5412;SDS011;2729;50.056;8.678;2023-02-28T06:04:40;1.80;;;1.70;;
5412;SDS011;2729;50.056;8.678;2023-02-28T06:07:07;1.80;;;1.70;;
5412;SDS011;2729;50.056;8.678;2023-02-28T06:09:33;1.60;;;1.60;;
5412;SDS011;2729;50.056;8.678;2023-02-28T06:12:00;1.80;;;1.70;;
5412;SDS011;2729;50.056;8.678;2023-02-28T06:14:29;3.03;;;1.83;;
5412;SDS011;2729;50.056;8.678;2023-02-28T06:16:56;2.00;;;1.60;;
5412;SDS011;2729;50.056;8.678;2023-02-28T06:19:23;1.77;;;1.70;;
5412;SDS011;2729;50.056;8.678;2023-02-28T06:21:51;1.47;;;1.47;;
5412;SDS011;2729;50.056;8.678;2023-02-28T06:24:20;2.00;;;1.90;;
5412;SDS011;2729;50.056;8.678;2023-02-28T06:26:47;2.23;;;2.03;;
5412;SDS011;2729;50.056;8.678;2023-02-28T06:29:14;1.87;;;1.67;;
5412;SDS011;2729;50.056;8.678;2023-02-28T06:31:44;2.87;;;1.73;;
5412;SDS011;2729;50.056;8.678;2023-02-28T06:34:10;1.63;;;1.53;;
5412;SDS011;2729;50.056;8.678;2023-02-28T06:36:40;1.73;;;1.63;;
5412;SDS011;2729;50.056;8.678;2023-02-28T06:39:07;2.00;;;1.90;;
5412;SDS011;2729;50.056;8.678;2023-02-28T06:41:35;2.87;;;2.33;;
5412;SDS011;2729;50.056;8.678;2023-02-28T06:44:04;2.90;;;2.23;;
5412;SDS011;2729;50.056;8.678;2023-02-28T06:46:31;2.37;;;2.20;;
5412;SDS011;2729;50.056;8.678;2023-02-28T06:48:57;1.93;;;1.83;;
5412;SDS011;2729;50.056;8.678;2023-02-28T06:51:23;2.40;;;1.87;;
5412;SDS011;2729;50.056;8.678;2023-02-28T06:53:50;1.70;;;1.60;;
5412;SDS011;2729;50.056;8.678;2023-02-28T06:56:17;1.67;;;1.57;;
5412;SDS011;2729;50.056;8.678;2023-02-28T06:58:47;2.13;;;1.93;;
5412;SDS011;2729;50.056;8.678;2023-02-28T07:01:15;1.80;;;1.70;;
5412;SDS011;2729;50.056;8.678;2023-02-28T07:03:42;2.20;;;1.90;;
5412;SDS011;2729;50.056;8.678;2023-02-28T07:06:08;3.83;;;1.97;;
5412;SDS011;2729;50.056;8.678;2023-02-28T07:08:34;1.90;;;1.70;;
5412;SDS011;2729;50.056;8.678;2023-02-28T07:11:01;2.10;;;1.60;;
5412;SDS011;2729;50.056;8.678;2023-02-28T07:13:27;1.70;;;1.60;;
5412;SDS011;2729;50.056;8.678;2023-02-28T07:15:54;1.90;;;1.80;;
5412;SDS011;2729;50.056;8.678;2023-02-28T07:18:21;2.30;;;1.60;;
5412;SDS011;2729;50.056;8.678;2023-02-28T07:20:47;1.80;;;1.70;;
5412;SDS011;2729;50.056;8.678;2023-02-28T07:23:13;1.67;;;1.57;;
5412;SDS011;2729;50.056;8.678;2023-02-28T07:25:39;1.97;;;1.87;;
5412;SDS011;2729;50.056;8.678;2023-02-28T07:28:05;1.73;;;1.63;;
5412;SDS011;2729;50.056;8.678;2023-02-28T07:30:31;1.93;;;1.83;;
5412;SDS011;2729;50.056;8.678;2023-02-28T07:32:57;1.43;;;1.40;;
5412;SDS011;2729;50.056;8.678;2023-02-28T07:35:23;2.93;;;2.00;;
5412;SDS011;2729;50.056;8.678;2023-02-28T07:37:49;1.63;;;1.53;;
5412;SDS011;2729;50.056;8.678;2023-02-28T07:40:15;1.93;;;1.83;;
5412;SDS011;2729;50.056;8.678;2023-02-28T07:42:43;1.93;;;1.83;;
5412;SDS011;2729;50.056;8.678;2023-02-28T07:45:10;1.93;;;1.83;;
5412;SDS011;2729;50.056;8.678;2023-02-28T07:47:37;8.90;;;2.17;;
5412;SDS011;2729;50.056;8.678;2023-02-28T07:50:05;1.67;;;1.50;;
5412;SDS011;2729;50.056;8.678;2023-02-28T07:52:32;2.40;;;2.30;;
5412;SDS011;2729;50.056;8.678;2023-02-28T07:54:58;1.70;;;1.60;;
5412;SDS011;2729;50.056;8.678;2023-02-28T07:57:24;2.30;;;2.10;;
5412;SDS011;2729;50.056;8.678;2023-02-28T07:59:51;2.47;;;2.27;;
5412;SDS011;2729;50.056;8.678;2023-02-28T08:02:17;2.23;;;2.03;;
5412;SDS011;2729;50.056;8.678;2023-02-28T08:04:45;2.10;;;1.90;;
5412;SDS011;2729;50.056;8.678;2023-02-28T08:07:12;9.80;;;2.10;;
5412;SDS011;2729;50.056;8.678;2023-02-28T08:09:39;2.27;;;2.17;;
5412;SDS011;2729;50.056;8.678;2023-02-28T08:12:06;2.10;;;1.90;;
5412;SDS011;2729;50.056;8.678;2023-02-28T08:14:33;2.27;;;2.17;;
5412;SDS011;2729;50.056;8.678;2023-02-28T08:16:59;2.57;;;2.23;;
5412;SDS011;2729;50.056;8.678;2023-02-28T08:19:25;2.57;;;2.33;;
5412;SDS011;2729;50.056;8.678;2023-02-28T08:21:51;3.27;;;1.93;;
5412;SDS011;2729;50.056;8.678;2023-02-28T08:24:17;2.40;;;2.20;;
5412;SDS011;2729;50.056;8.678;2023-02-28T08:26:44;3.53;;;3.03;;
5412;SDS011;2729;50.056;8.678;2023-02-28T08:29:10;4.83;;;2.10;;
5412;SDS011;2729;50.056;8.678;2023-02-28T08:31:35;3.57;;;2.43;;
5412;SDS011;2729;50.056;8.678;2023-02-28T08:34:14;2.53;;;2.40;;
5412;SDS011;2729;50.056;8.678;2023-02-28T08:36:41;1.70;;;1.60;;
5412;SDS011;2729;50.056;8.678;2023-02-28T08:39:10;2.40;;;2.20;;
5412;SDS011;2729;50.056;8.678;2023-02-28T08:41:36;3.90;;;2.20;;
5412;SDS011;2729;50.056;8.678;2023-02-28T08:44:02;2.33;;;2.13;;
5412;SDS011;2729;50.056;8.678;2023-02-28T08:46:28;3.63;;;1.97;;
5412;SDS011;2729;50.056;8.678;2023-02-28T08:48:54;2.20;;;2.10;;
5412;SDS011;2729;50.056;8.678;2023-02-28T08:51:24;2.03;;;1.90;;
5412;SDS011;2729;50.056;8.678;2023-02-28T08:53:54;1.80;;;1.70;;
5412;SDS011;2729;50.056;8.678;2023-02-28T08:56:21;2.50;;;2.30;;
5412;SDS011;2729;50.056;8.678;2023-02-28T08:58:48;2.13;;;2.03;;
5412;SDS011;2729;50.056;8.678;2023-02-28T09:01:16;2.37;;;2.27;;
5412;SDS011;2729;50.056;8.678;2023-02-28T09:03:44;2.20;;;2.10;;
5412;SDS011;2729;50.056;8.678;2023-02-28T09:06:13;3.87;;;2.47;;
5412;SDS011;2729;50.056;8.678;2023-02-28T09:08:39;2.50;;;2.27;;
5412;SDS011;2729;50.056;8.678;2023-02-28T09:11:06;2.07;;;1.87;;
5412;SDS011;2729;50.056;8.678;2023-02-28T09:13:32;2.10;;;2.00;;
5412;SDS011;2729;50.056;8.678;2023-02-28T09:16:00;2.53;;;2.23;;
5412;SDS011;2729;50.056;8.678;2023-02-28T09:18:28;2.40;;;2.20;;
5412;SDS011;2729;50.056;8.678;2023-02-28T09:20:55;2.20;;;2.10;;
5412;SDS011;2729;50.056;8.678;2023-02-28T09:23:21;2.40;;;2.20;;
5412;SDS011;2729;50.056;8.678;2023-02-28T09:25:48;2.47;;;2.27;;
5412;SDS011;2729;50.056;8.678;2023-02-28T09:28:19;2.70;;;2.10;;
5412;SDS011;2729;50.056;8.678;2023-02-28T09:30:46;2.30;;;2.10;;
5412;SDS011;2729;50.056;8.678;2023-02-28T09:33:16;4.00;;;2.33;;
5412;SDS011;2729;50.056;8.678;2023-02-28T09:35:44;2.90;;;2.20;;
5412;SDS011;2729;50.056;8.678;2023-02-28T09:38:10;3.30;;;2.27;;
5412;SDS011;2729;50.056;8.678;2023-02-28T09:40:44;2.20;;;2.10;;
5412;SDS011;2729;50.056;8.678;2023-02-28T09:43:15;2.10;;;2.00;;
5412;SDS011;2729;50.056;8.678;2023-02-28T09:45:45;2.17;;;2.03;;
5412;SDS011;2729;50.056;8.678;2023-02-28T09:48:20;3.00;;;2.47;;
5412;SDS011;2729;50.056;8.678;2023-02-28T09:50:51;4.10;;;2.60;;
5412;SDS011;2729;50.056;8.678;2023-02-28T09:53:22;3.23;;;2.50;;
5412;SDS011;2729;50.056;8.678;2023-02-28T09:55:55;2.10;;;2.00;;
5412;SDS011;2729;50.056;8.678;2023-02-28T10:01:00;2.23;;;2.13;;
5412;SDS011;2729;50.056;8.678;2023-02-28T10:06:20;3.27;;;2.97;;
5412;SDS011;2729;50.056;8.678;2023-02-28T10:09:34;2.57;;;2.37;;
5412;SDS011;2729;50.056;8.678;2023-02-28T10:11:48;3.33;;;2.90;;
5412;SDS011;2729;50.056;8.678;2023-02-28T10:14:17;2.77;;;2.30;;
5412;SDS011;2729;50.056;8.678;2023-02-28T10:16:47;2.40;;;1.90;;
5412;SDS011;2729;50.056;8.678;2023-02-28T10:19:25;4.70;;;2.30;;
5412;SDS011;2729;50.056;8.678;2023-02-28T10:22:08;3.07;;;2.77;;
5412;SDS011;2729;50.056;8.678;2023-02-28T10:24:44;2.90;;;2.70;;
5412;SDS011;2729;50.056;8.678;2023-02-28T10:27:14;2.70;;;2.50;;
5412;SDS011;2729;50.056;8.678;2023-02-28T10:29:43;2.87;;;2.53;;
5412;SDS011;2729;50.056;8.678;2023-02-28T10:32:11;2.37;;;2.17;;
5412;SDS011;2729;50.056;8.678;2023-02-28T10:34:44;2.77;;;2.27;;
5412;SDS011;2729;50.056;8.678;2023-02-28T10:37:12;2.83;;;2.57;;
5412;SDS011;2729;50.056;8.678;2023-02-28T10:39:42;3.63;;;3.03;;
5412;SDS011;2729;50.056;8.678;2023-02-28T10:42:45;2.77;;;2.33;;
5412;SDS011;2729;50.056;8.678;2023-02-28T10:45:11;2.90;;;2.30;;
5412;SDS011;2729;50.056;8.678;2023-02-28T10:47:42;2.90;;;2.70;;
5412;SDS011;2729;50.056;8.678;2023-02-28T10:50:27;2.57;;;2.47;;
5412;SDS011;2729;50.056;8.678;2023-02-28T10:53:04;2.67;;;2.47;;
5412;SDS011;2729;50.056;8.678;2023-02-28T10:55:34;2.93;;;2.60;;
5412;SDS011;2729;50.056;8.678;2023-02-28T10:58:00;4.23;;;2.70;;
5412;SDS011;2729;50.056;8.678;2023-02-28T11:00:26;2.83;;;2.57;;
5412;SDS011;2729;50.056;8.678;2023-02-28T11:03:00;2.63;;;2.43;;
5412;SDS011;2729;50.056;8.678;2023-02-28T11:05:29;4.53;;;3.30;;
5412;SDS011;2729;50.056;8.678;2023-02-28T11:08:05;3.17;;;2.40;;
5412;SDS011;2729;50.056;8.678;2023-02-28T11:10:38;4.50;;;3.00;;
5412;SDS011;2729;50.056;8.678;2023-02-28T11:13:04;4.13;;;2.80;;
5412;SDS011;2729;50.056;8.678;2023-02-28T11:15:32;3.03;;;2.50;;
5412;SDS011;2729;50.056;8.678;2023-02-28T11:20:37;2.90;;;2.70;;
5412;SDS011;2729;50.056;8.678;2023-02-28T11:23:04;2.63;;;2.43;;
5412;SDS011;2729;50.056;8.678;2023-02-28T11:25:37;3.30;;;3.00;;
5412;SDS011;2729;50.056;8.678;2023-02-28T11:28:05;2.77;;;2.53;;
5412;SDS011;2729;50.056;8.678;2023-02-28T11:30:59;4.30;;;2.90;;
5412;SDS011;2729;50.056;8.678;2023-02-28T11:33:29;2.60;;;2.40;;
5412;SDS011;2729;50.056;8.678;2023-02-28T11:35:58;3.20;;;2.70;;
5412;SDS011;2729;50.056;8.678;2023-02-28T11:38:27;2.83;;;2.63;;
5412;SDS011;2729;50.056;8.678;2023-02-28T11:49:16;3.37;;;2.93;;
5412;SDS011;2729;50.056;8.678;2023-02-28T11:52:03;3.50;;;3.20;;
5412;SDS011;2729;50.056;8.678;2023-02-28T11:54:47;4.23;;;2.70;;
5412;SDS011;2729;50.056;8.678;2023-02-28T12:00:44;2.90;;;2.70;;
5412;SDS011;2729;50.056;8.678;2023-02-28T12:09:11;3.70;;;2.67;;
5412;SDS011;2729;50.056;8.678;2023-02-28T12:12:18;4.47;;;3.20;;
5412;SDS011;2729;50.056;8.678;2023-02-28T12:15:13;3.63;;;3.23;;
5412;SDS011;2729;50.056;8.678;2023-02-28T12:17:55;3.80;;;3.07;;
5412;SDS011;2729;50.056;8.678;2023-02-28T12:28:16;3.80;;;2.90;;
5412;SDS011;2729;50.056;8.678;2023-02-28T12:30:53;4.53;;;2.90;;
5412;SDS011;2729;50.056;8.678;2023-02-28T12:33:24;3.30;;;3.00;;
5412;SDS011;2729;50.056;8.678;2023-02-28T12:35:56;3.30;;;3.00;;
5412;SDS011;2729;50.056;8.678;2023-02-28T12:38:28;4.20;;;3.17;;
5412;SDS011;2729;50.056;8.678;2023-02-28T12:41:00;3.70;;;2.60;;
5412;SDS011;2729;50.056;8.678;2023-02-28T12:43:38;3.67;;;3.20;;
5412;SDS011;2729;50.056;8.678;2023-02-28T12:46:10;2.83;;;2.63;;
5412;SDS011;2729;50.056;8.678;2023-02-28T12:48:42;3.50;;;3.20;;
5412;SDS011;2729;50.056;8.678;2023-02-28T12:51:11;3.83;;;3.37;;
5412;SDS011;2729;50.056;8.678;2023-02-28T12:53:43;4.93;;;2.97;;
5412;SDS011;2729;50.056;8.678;2023-02-28T12:56:38;3.00;;;2.70;;
5412;SDS011;2729;50.056;8.678;2023-02-28T12:59:13;4.50;;;3.30;;
5412;SDS011;2729;50.056;8.678;2023-02-28T13:02:08;3.47;;;3.17;;
5412;SDS011;2729;50.056;8.678;2023-02-28T13:10:23;4.20;;;3.47;;
5412;SDS011;2729;50.056;8.678;2023-02-28T13:12:52;5.40;;;3.87;;
5412;SDS011;2729;50.056;8.678;2023-02-28T13:15:27;5.00;;;3.40;;
5412;SDS011;2729;50.056;8.678;2023-02-28T13:17:55;10.53;;;3.63;;
5412;SDS011;2729;50.056;8.678;2023-02-28T13:20:24;6.93;;;4.07;;
5412;SDS011;2729;50.056;8.678;2023-02-28T13:22:53;4.60;;;3.20;;
5412;SDS011;2729;50.056;8.678;2023-02-28T13:28:11;4.27;;;3.10;;
5412;SDS011;2729;50.056;8.678;2023-02-28T13:33:28;3.83;;;3.50;;
5412;SDS011;2729;50.056;8.678;2023-02-28T13:46:36;5.10;;;3.60;;
5412;SDS011;2729;50.056;8.678;2023-02-28T13:51:55;4.30;;;3.50;;
5412;SDS011;2729;50.056;8.678;2023-02-28T14:09:00;3.93;;;3.37;;
5412;SDS011;2729;50.056;8.678;2023-02-28T14:11:33;4.33;;;3.57;;
5412;SDS011;2729;50.056;8.678;2023-02-28T14:14:01;3.83;;;3.37;;
5412;SDS011;2729;50.056;8.678;2023-02-28T14:16:44;4.50;;;3.20;;
5412;SDS011;2729;50.056;8.678;2023-02-28T14:19:24;5.00;;;3.03;;
5412;SDS011;2729;50.056;8.678;2023-02-28T14:21:59;4.17;;;3.57;;
5412;SDS011;2729;50.056;8.678;2023-02-28T14:27:32;4.57;;;3.60;;
5412;SDS011;2729;50.056;8.678;2023-02-28T14:35:50;5.07;;;3.63;;
5412;SDS011;2729;50.056;8.678;2023-02-28T14:38:26;5.80;;;2.87;;
5412;SDS011;2729;50.056;8.678;2023-02-28T14:40:56;3.93;;;3.27;;
5412;SDS011;2729;50.056;8.678;2023-02-28T14:43:24;3.33;;;3.03;;
5412;SDS011;2729;50.056;8.678;2023-02-28T14:45:57;11.43;;;3.87;;
5412;SDS011;2729;50.056;8.678;2023-02-28T14:48:25;5.30;;;3.63;;
5412;SDS011;2729;50.056;8.678;2023-02-28T14:50:56;3.67;;;3.20;;
5412;SDS011;2729;50.056;8.678;2023-02-28T14:53:26;3.77;;;3.40;;
5412;SDS011;2729;50.056;8.678;2023-02-28T14:55:54;4.00;;;3.53;;
5412;SDS011;2729;50.056;8.678;2023-02-28T14:58:25;7.93;;;4.50;;
5412;SDS011;2729;50.056;8.678;2023-02-28T15:00:57;5.17;;;3.73;;
5412;SDS011;2729;50.056;8.678;2023-02-28T15:03:35;3.77;;;3.47;;
5412;SDS011;2729;50.056;8.678;2023-02-28T15:06:04;5.00;;;3.23;;
5412;SDS011;2729;50.056;8.678;2023-02-28T15:08:32;4.63;;;3.30;;
5412;SDS011;2729;50.056;8.678;2023-02-28T15:11:05;3.50;;;3.20;;
5412;SDS011;2729;50.056;8.678;2023-02-28T15:13:42;4.60;;;3.50;;
5412;SDS011;2729;50.056;8.678;2023-02-28T15:21:34;16.83;;;4.57;;
5412;SDS011;2729;50.056;8.678;2023-02-28T15:24:06;3.87;;;3.57;;
5412;SDS011;2729;50.056;8.678;2023-02-28T15:26:42;7.30;;;3.17;;
5412;SDS011;2729;50.056;8.678;2023-02-28T15:29:12;4.17;;;3.77;;
5412;SDS011;2729;50.056;8.678;2023-02-28T15:31:43;7.57;;;4.23;;
5412;SDS011;2729;50.056;8.678;2023-02-28T15:34:18;7.73;;;4.47;;
5412;SDS011;2729;50.056;8.678;2023-02-28T15:36:47;8.10;;;3.83;;
5412;SDS011;2729;50.056;8.678;2023-02-28T15:39:24;6.37;;;3.50;;
5412;SDS011;2729;50.056;8.678;2023-02-28T15:42:10;6.07;;;3.63;;
5412;SDS011;2729;50.056;8.678;2023-02-28T15:44:38;4.03;;;3.63;;
5412;SDS011;2729;50.056;8.678;2023-02-28T15:47:14;5.60;;;3.93;;
5412;SDS011;2729;50.056;8.678;2023-02-28T15:49:50;4.83;;;3.53;;
5412;SDS011;2729;50.056;8.678;2023-02-28T15:52:19;3.80;;;3.40;;
5412;SDS011;2729;50.056;8.678;2023-02-28T15:54:58;4.33;;;3.50;;
5412;SDS011;2729;50.056;8.678;2023-02-28T15:57:25;6.23;;;3.60;;
5412;SDS011;2729;50.056;8.678;2023-02-28T15:59:54;4.50;;;3.73;;
5412;SDS011;2729;50.056;8.678;2023-02-28T16:02:35;5.53;;;3.70;;
5412;SDS011;2729;50.056;8.678;2023-02-28T16:05:17;4.30;;;3.43;;
5412;SDS011;2729;50.056;8.678;2023-02-28T16:07:54;4.73;;;4.10;;
5412;SDS011;2729;50.056;8.678;2023-02-28T16:10:21;4.60;;;3.60;;
5412;SDS011;2729;50.056;8.678;2023-02-28T16:12:52;4.63;;;3.93;;
5412;SDS011;2729;50.056;8.678;2023-02-28T16:15:21;6.27;;;3.57;;
5412;SDS011;2729;50.056;8.678;2023-02-28T16:17:51;7.17;;;4.17;;
5412;SDS011;2729;50.056;8.678;2023-02-28T16:20:22;4.80;;;3.40;;
5412;SDS011;2729;50.056;8.678;2023-02-28T16:22:53;4.87;;;3.50;;
5412;SDS011;2729;50.056;8.678;2023-02-28T16:25:26;3.27;;;2.97;;
5412;SDS011;2729;50.056;8.678;2023-02-28T16:27:58;4.03;;;3.63;;
5412;SDS011;2729;50.056;8.678;2023-02-28T16:30:26;3.97;;;3.57;;
5412;SDS011;2729;50.056;8.678;2023-02-28T16:32:54;4.03;;;3.63;;
5412;SDS011;2729;50.056;8.678;2023-02-28T16:35:21;4.47;;;3.83;;
5412;SDS011;2729;50.056;8.678;2023-02-28T16:37:47;4.67;;;3.90;;
5412;SDS011;2729;50.056;8.678;2023-02-28T16:40:14;5.73;;;3.60;;
5412;SDS011;2729;50.056;8.678;2023-02-28T16:42:42;6.83;;;3.60;;
5412;SDS011;2729;50.056;8.678;2023-02-28T16:45:20;5.13;;;3.70;;
5412;SDS011;2729;50.056;8.678;2023-02-28T16:47:48;5.97;;;4.20;;
5412;SDS011;2729;50.056;8.678;2023-02-28T16:50:16;5.50;;;3.60;;
5412;SDS011;2729;50.056;8.678;2023-02-28T16:52:43;6.37;;;3.80;;
5412;SDS011;2729;50.056;8.678;2023-02-28T16:55:10;5.10;;;3.80;;
5412;SDS011;2729;50.056;8.678;2023-02-28T16:57:36;4.87;;;3.80;;
5412;SDS011;2729;50.056;8.678;2023-02-28T17:00:03;8.53;;;3.70;;
5412;SDS011;2729;50.056;8.678;2023-02-28T17:02:30;5.40;;;3.30;;
5412;SDS011;2729;50.056;8.678;2023-02-28T17:04:56;5.13;;;3.60;;
5412;SDS011;2729;50.056;8.678;2023-02-28T17:07:22;4.77;;;3.67;;
5412;SDS011;2729;50.056;8.678;2023-02-28T17:09:48;5.80;;;4.00;;
5412;SDS011;2729;50.056;8.678;2023-02-28T17:12:14;3.80;;;3.30;;
5412;SDS011;2729;50.056;8.678;2023-02-28T17:14:40;5.37;;;3.60;;
5412;SDS011;2729;50.056;8.678;2023-02-28T17:17:06;3.90;;;3.50;;
5412;SDS011;2729;50.056;8.678;2023-02-28T17:19:36;5.03;;;3.70;;
5412;SDS011;2729;50.056;8.678;2023-02-28T17:22:03;5.03;;;3.70;;